Time;durP1;ratioP1;P1;durP2;ratioP2;P2;SDS_P1;SDS_P2;PMS_P1;PMS_P2;Temp;Humidity;BMP_temperature;BMP_pressure;BME280_temperature;BME280_humidity;BME280_pressure;Samples;Min_cycle;Max_cycle;Signal;HPM_P1;HPM_P2
2023/04/30 00:01:50;;;;;;;8.75;5.20;;;23.30;50.20;;;;;;7640645;22;80178;-63
2023/04/30 00:04:51;;;;;;;5.15;4.53;;;23.30;49.80;;;;;;7640575;22;80109;-62
2023/04/30 00:07:51;;;;;;;7.88;5.05;;;23.30;49.70;;;;;;7641247;22;80308;-64
2023/04/30 00:10:52;;;;;;;6.20;4.82;;;23.30;49.90;;;;;;7639243;22;80395;-63
2023/04/30 00:13:52;;;;;;;6.40;4.85;;;23.30;49.90;;;;;;7640965;22;79969;-63
2023/04/30 00:16:53;;;;;;;8.13;4.60;;;23.30;49.90;;;;;;7641411;22;80629;-64
2023/04/30 00:19:53;;;;;;;6.78;5.05;;;23.30;49.80;;;;;;7640680;22;80321;-64
2023/04/30 00:22:54;;;;;;;7.00;4.93;;;23.30;49.90;;;;;;7640409;22;80489;-65
2023/04/30 00:25:55;;;;;;;5.45;4.40;;;23.20;50.00;;;;;;7640502;22;80395;-64
2023/04/30 00:28:55;;;;;;;5.75;4.57;;;23.20;49.90;;;;;;7640347;22;80332;-64
2023/04/30 00:31:56;;;;;;;7.07;4.55;;;23.30;49.90;;;;;;7640120;22;80585;-63
2023/04/30 00:34:56;;;;;;;5.70;4.05;;;23.30;49.90;;;;;;7613444;22;80437;-62
2023/04/30 00:37:57;;;;;;;6.43;4.25;;;23.20;49.90;;;;;;7613607;22;81439;-62
2023/04/30 00:40:57;;;;;;;7.47;4.18;;;23.20;49.90;;;;;;7638743;22;80075;-63
2023/04/30 00:43:58;;;;;;;6.82;4.47;;;23.20;49.90;;;;;;7638880;22;80636;-62
2023/04/30 00:46:58;;;;;;;5.57;4.07;;;23.20;49.90;;;;;;7613277;22;83136;-63
2023/04/30 00:49:59;;;;;;;5.60;4.30;;;23.20;49.90;;;;;;7613241;22;80580;-62
2023/04/30 00:53:00;;;;;;;7.00;4.10;;;23.20;49.90;;;;;;7640784;22;81376;-69
2023/04/30 00:56:00;;;;;;;5.95;4.53;;;23.20;49.90;;;;;;7613288;22;82444;-71
2023/04/30 00:59:01;;;;;;;8.15;4.00;;;23.20;49.90;;;;;;7639219;22;80561;-71
2023/04/30 01:02:02;;;;;;;5.32;4.25;;;23.20;49.80;;;;;;7614080;22;83429;-72
2023/04/30 01:05:02;;;;;;;4.70;3.70;;;23.20;49.90;;;;;;7612670;22;81377;-69
2023/04/30 01:08:03;;;;;;;5.43;3.97;;;23.20;49.60;;;;;;7588735;22;83649;-69
2023/04/30 01:11:03;;;;;;;5.05;3.72;;;23.20;49.80;;;;;;7640002;22;79945;-59
2023/04/30 01:14:04;;;;;;;4.03;3.63;;;23.20;49.90;;;;;;7639963;22;80525;-60
2023/04/30 01:17:05;;;;;;;4.90;3.80;;;23.20;49.90;;;;;;7640472;22;80384;-60
2023/04/30 01:20:06;;;;;;;5.72;4.10;;;23.20;49.80;;;;;;7612786;22;81328;-60
2023/04/30 01:23:06;;;;;;;5.18;4.15;;;23.20;50.00;;;;;;7639694;22;81349;-61
2023/04/30 01:26:07;;;;;;;5.03;3.78;;;23.20;50.00;;;;;;7637211;22;81105;-60
2023/04/30 01:29:07;;;;;;;5.72;4.00;;;23.20;50.00;;;;;;7639345;22;80376;-59
2023/04/30 01:32:08;;;;;;;4.85;3.85;;;23.20;50.20;;;;;;7612362;22;83455;-62
2023/04/30 01:35:08;;;;;;;7.88;4.65;;;23.20;50.30;;;;;;7638673;22;80397;-61
2023/04/30 01:38:09;;;;;;;5.28;3.90;;;23.20;50.40;;;;;;7637553;22;80601;-60
2023/04/30 01:41:09;;;;;;;7.78;4.82;;;23.10;50.40;;;;;;7636886;22;80217;-63
2023/04/30 01:44:10;;;;;;;7.38;5.07;;;23.10;50.60;;;;;;7637951;22;80775;-60
2023/04/30 01:47:11;;;;;;;8.77;5.43;;;23.20;50.70;;;;;;7610043;22;82682;-69
2023/04/30 01:50:11;;;;;;;7.75;5.30;;;23.10;50.70;;;;;;7611045;22;81729;-71
2023/04/30 01:53:12;;;;;;;6.97;5.22;;;23.20;50.80;;;;;;7611045;22;81960;-70
2023/04/30 01:56:12;;;;;;;6.65;5.38;;;23.10;50.60;;;;;;7613018;22;89241;-64
2023/04/30 01:59:13;;;;;;;6.55;5.38;;;23.10;50.60;;;;;;7607399;22;83243;-69
2023/04/30 02:02:14;;;;;;;8.50;5.63;;;23.10;50.80;;;;;;7613931;22;83178;-68
2023/04/30 02:05:15;;;;;;;7.85;5.43;;;23.10;50.70;;;;;;7641145;22;80525;-69
2023/04/30 02:08:15;;;;;;;7.20;5.10;;;23.00;50.70;;;;;;7640881;22;81319;-61
2023/04/30 02:11:16;;;;;;;8.82;5.38;;;23.10;50.70;;;;;;7640542;22;80869;-60
2023/04/30 02:14:16;;;;;;;8.00;5.22;;;23.00;50.70;;;;;;7640816;22;81286;-61
2023/04/30 02:17:17;;;;;;;5.93;5.22;;;23.00;50.60;;;;;;7614549;22;83325;-60
2023/04/30 02:20:17;;;;;;;7.32;5.53;;;23.00;50.70;;;;;;7614029;22;83271;-61
2023/04/30 02:23:18;;;;;;;6.00;5.10;;;23.00;50.70;;;;;;7613419;22;83242;-62
2023/04/30 02:26:18;;;;;;;6.65;5.50;;;23.00;50.60;;;;;;7641717;22;80890;-61
2023/04/30 02:29:19;;;;;;;8.77;5.70;;;23.00;50.60;;;;;;7640135;22;80497;-62
2023/04/30 02:32:20;;;;;;;7.25;5.45;;;23.00;50.60;;;;;;7640987;22;80212;-62
2023/04/30 02:35:21;;;;;;;6.25;5.57;;;23.00;50.70;;;;;;7614219;22;82024;-61
2023/04/30 02:38:21;;;;;;;7.13;5.72;;;23.00;50.60;;;;;;7614586;22;82930;-62
2023/04/30 02:41:21;;;;;;;6.38;5.50;;;23.00;50.80;;;;;;7613179;22;83648;-62
2023/04/30 02:44:22;;;;;;;8.00;5.75;;;23.00;50.80;;;;;;7613719;22;81774;-58
2023/04/30 02:47:23;;;;;;;7.05;5.47;;;23.00;50.70;;;;;;7640629;22;80069;-59
2023/04/30 02:50:23;;;;;;;6.82;5.35;;;23.00;50.70;;;;;;7641910;22;81266;-58
2023/04/30 02:53:24;;;;;;;7.28;5.25;;;23.00;50.70;;;;;;7641252;22;82215;-59
2023/04/30 02:56:24;;;;;;;7.38;5.72;;;23.00;50.70;;;;;;7640426;22;80326;-60
2023/04/30 02:59:26;;;;;;;6.75;5.55;;;23.00;50.70;;;;;;7613429;22;83166;-60
2023/04/30 03:02:26;;;;;;;8.27;5.85;;;23.00;50.70;;;;;;7612502;22;82987;-60
2023/04/30 03:05:27;;;;;;;7.05;6.05;;;22.90;50.70;;;;;;7612640;22;82708;-59
2023/04/30 03:08:27;;;;;;;7.70;6.18;;;22.90;50.70;;;;;;7614230;22;83143;-59
2023/04/30 03:11:28;;;;;;;6.95;5.55;;;22.90;50.70;;;;;;7612451;22;83202;-59
2023/04/30 03:14:29;;;;;;;7.53;6.28;;;22.90;50.70;;;;;;7640904;22;80190;-59
2023/04/30 03:17:29;;;;;;;7.72;5.47;;;23.00;50.80;;;;;;7639129;22;80712;-59
2023/04/30 03:20:30;;;;;;;7.72;5.95;;;22.90;50.60;;;;;;7640634;22;80905;-63
2023/04/30 03:23:30;;;;;;;8.98;5.88;;;23.00;50.80;;;;;;7640095;22;80631;-65
2023/04/30 03:26:31;;;;;;;9.98;6.97;;;23.00;50.60;;;;;;7638508;22;80808;-67
2023/04/30 03:29:31;;;;;;;7.90;6.20;;;23.10;50.70;;;;;;7614140;22;81224;-62
2023/04/30 03:32:32;;;;;;;8.45;6.50;;;23.10;50.60;;;;;;7612704;22;81683;-64
2023/04/30 03:35:33;;;;;;;7.63;5.75;;;23.10;50.60;;;;;;7638977;22;80252;-62
2023/04/30 03:38:33;;;;;;;8.90;6.15;;;23.10;50.60;;;;;;7613449;22;81662;-62
2023/04/30 03:41:33;;;;;;;8.93;6.60;;;23.10;50.60;;;;;;7639106;22;80445;-63
2023/04/30 03:44:34;;;;;;;8.60;6.45;;;23.20;50.50;;;;;;7640455;22;81402;-63
2023/04/30 03:47:35;;;;;;;9.45;6.15;;;23.20;50.60;;;;;;7611743;22;82913;-63
2023/04/30 03:50:36;;;;;;;8.52;6.60;;;23.20;50.50;;;;;;7640604;22;80564;-64
2023/04/30 03:53:36;;;;;;;6.75;5.85;;;23.20;50.40;;;;;;7641237;22;80353;-63
2023/04/30 03:56:37;;;;;;;7.57;6.20;;;23.20;50.30;;;;;;7640721;22;80855;-60
2023/04/30 03:59:37;;;;;;;7.85;6.32;;;23.20;50.30;;;;;;7613550;22;82943;-60
2023/04/30 04:02:38;;;;;;;7.30;5.72;;;23.30;50.20;;;;;;7640530;22;80702;-61
2023/04/30 04:08:45;;;;;;;9.10;6.15;;;23.30;50.20;;;;;;7640305;22;80000;-60
2023/04/30 04:11:46;;;;;;;7.72;5.93;;;23.30;50.10;;;;;;7613617;22;83141;-59
2023/04/30 04:14:47;;;;;;;7.00;5.47;;;23.30;50.20;;;;;;7613817;22;81506;-64
2023/04/30 04:17:47;;;;;;;7.13;5.85;;;23.30;50.10;;;;;;7612832;22;81820;-64
2023/04/30 04:20:48;;;;;;;8.85;6.43;;;23.30;50.10;;;;;;7640248;22;80210;-63
2023/04/30 04:23:50;;;;;;;9.27;5.60;;;23.30;50.10;;;;;;7612999;22;83362;-65
2023/04/30 04:26:50;;;;;;;6.75;5.38;;;23.30;50.10;;;;;;7613371;22;82477;-64
2023/04/30 04:29:52;;;;;;;7.82;5.50;;;23.30;50.20;;;;;;7640004;22;80697;-63
2023/04/30 04:32:53;;;;;;;5.97;4.72;;;23.30;50.10;;;;;;7613146;22;82531;-64
2023/04/30 04:35:56;;;;;;;8.00;5.05;;;23.30;50.10;;;;;;7639600;22;80483;-64
2023/04/30 04:39:00;;;;;;;5.93;4.80;;;23.30;50.20;;;;;;7613928;22;83141;-63
2023/04/30 04:42:01;;;;;;;5.97;4.78;;;23.30;50.00;;;;;;7612941;22;83511;-64
2023/04/30 04:45:02;;;;;;;6.35;4.70;;;23.30;50.00;;;;;;7613327;22;81576;-64
2023/04/30 04:48:03;;;;;;;6.55;5.00;;;23.30;50.00;;;;;;7613056;22;82427;-65
2023/04/30 04:51:04;;;;;;;5.85;4.57;;;23.30;50.00;;;;;;7640154;22;80362;-64
2023/04/30 04:54:05;;;;;;;5.85;4.63;;;23.30;50.10;;;;;;7612814;22;83357;-65
2023/04/30 04:57:06;;;;;;;5.10;4.07;;;23.30;49.90;;;;;;7613029;22;82127;-65
2023/04/30 05:00:07;;;;;;;5.05;4.28;;;23.30;50.00;;;;;;7612802;22;81491;-65
2023/04/30 05:03:08;;;;;;;4.65;3.53;;;23.40;49.90;;;;;;7613120;22;88032;-66
2023/04/30 05:06:09;;;;;;;4.75;3.85;;;23.30;49.90;;;;;;7610560;22;83104;-65
2023/04/30 05:09:09;;;;;;;5.55;4.15;;;23.30;49.90;;;;;;7638524;22;80136;-63
2023/04/30 05:12:10;;;;;;;4.28;3.67;;;23.30;50.10;;;;;;7638530;22;80518;-65
2023/04/30 05:15:10;;;;;;;7.60;4.40;;;23.30;50.10;;;;;;7632004;22;80990;-67
2023/04/30 05:18:11;;;;;;;5.60;3.55;;;23.30;49.90;;;;;;7638407;22;80167;-70
2023/04/30 05:21:11;;;;;;;4.10;3.45;;;23.30;50.00;;;;;;7638656;22;80893;-67
2023/04/30 05:24:12;;;;;;;4.60;3.75;;;23.30;49.90;;;;;;7638145;22;80527;-66
2023/04/30 05:27:12;;;;;;;4.50;3.55;;;23.30;49.80;;;;;;7638887;22;80918;-65
2023/04/30 05:30:14;;;;;;;5.55;4.18;;;23.30;49.80;;;;;;7640193;22;80599;-59
2023/04/30 05:33:15;;;;;;;4.18;3.10;;;23.40;49.60;;;;;;7639803;22;80577;-59
2023/04/30 05:36:16;;;;;;;4.20;3.42;;;23.30;49.50;;;;;;7640029;22;80325;-60
2023/04/30 05:39:16;;;;;;;4.00;3.35;;;23.30;49.50;;;;;;7638194;22;80420;-58
2023/04/30 05:42:17;;;;;;;4.60;3.22;;;23.30;49.30;;;;;;7640511;22;80634;-60
2023/04/30 05:45:17;;;;;;;3.65;3.10;;;23.30;49.30;;;;;;7639597;22;84198;-61
2023/04/30 05:48:18;;;;;;;3.38;3.08;;;23.30;49.20;;;;;;7605979;22;82201;-67
2023/04/30 05:51:18;;;;;;;5.55;2.90;;;23.30;49.40;;;;;;7644262;22;80077;-69
2023/04/30 05:54:19;;;;;;;3.28;2.97;;;23.30;49.20;;;;;;7617338;22;82049;-68
2023/04/30 05:57:20;;;;;;;3.05;2.55;;;23.30;49.10;;;;;;7642167;22;80448;-67
2023/04/30 06:00:20;;;;;;;4.13;3.35;;;23.30;49.10;;;;;;7643111;22;80695;-66
2023/04/30 06:03:21;;;;;;;4.72;3.13;;;23.30;49.10;;;;;;7640375;22;80914;-69
2023/04/30 06:06:21;;;;;;;3.67;3.20;;;23.20;49.00;;;;;;7643299;22;80295;-61
2023/04/30 06:09:22;;;;;;;3.92;3.10;;;23.20;49.00;;;;;;7640196;22;80703;-60
2023/04/30 06:12:22;;;;;;;3.25;2.72;;;23.20;49.00;;;;;;7639374;22;80379;-60
2023/04/30 06:15:23;;;;;;;3.92;2.90;;;23.20;48.90;;;;;;7641482;22;80351;-60
2023/04/30 06:18:23;;;;;;;4.80;2.88;;;23.20;48.90;;;;;;7637922;22;80990;-64
2023/04/30 06:21:27;;;;;;;3.50;2.90;;;23.20;48.80;;;;;;7644036;22;80603;-62
2023/04/30 06:24:29;;;;;;;2.80;2.50;;;23.30;48.90;;;;;;7644068;22;81251;-71
2023/04/30 06:27:31;;;;;;;3.33;2.60;;;23.20;48.70;;;;;;7642844;22;80432;-67
2023/04/30 06:30:31;;;;;;;5.47;3.50;;;23.30;48.70;;;;;;7643101;22;80610;-63
2023/04/30 06:33:32;;;;;;;5.68;3.58;;;23.30;48.60;;;;;;7639814;22;80702;-66
2023/04/30 06:36:32;;;;;;;3.88;3.22;;;23.30;48.40;;;;;;7643337;22;81098;-65
2023/04/30 06:39:33;;;;;;;4.07;3.30;;;23.30;48.10;;;;;;7643304;22;80470;-64
2023/04/30 06:42:34;;;;;;;5.65;4.05;;;23.30;47.90;;;;;;7642645;22;80306;-72
2023/04/30 06:45:34;;;;;;;5.03;3.58;;;23.30;47.70;;;;;;7643258;22;80759;-75
2023/04/30 06:48:35;;;;;;;7.00;3.90;;;23.30;47.40;;;;;;7613991;22;83343;-71
2023/04/30 06:51:35;;;;;;;5.70;3.88;;;23.30;47.30;;;;;;7643060;22;80743;-70
2023/04/30 06:54:36;;;;;;;6.55;3.97;;;23.30;47.10;;;;;;7642475;22;80916;-69
2023/04/30 06:57:36;;;;;;;4.40;3.80;;;23.20;46.80;;;;;;7642884;22;80242;-71
2023/04/30 07:00:37;;;;;;;7.28;3.72;;;23.20;46.40;;;;;;7636704;22;81664;-69
2023/04/30 07:03:38;;;;;;;4.85;3.60;;;23.20;46.50;;;;;;7643570;22;80950;-71
2023/04/30 07:06:38;;;;;;;4.82;3.45;;;23.20;46.20;;;;;;7642532;22;80443;-73
2023/04/30 07:13:04;;;;;;;4.90;3.85;;;23.20;46.00;;;;;;7605833;23;80277;-73
2023/04/30 07:16:05;;;;;;;5.38;3.67;;;23.20;45.90;;;;;;7601739;23;80389;-73
2023/04/30 07:19:05;;;;;;;4.68;3.75;;;23.20;45.60;;;;;;7604295;23;80265;-72
2023/04/30 07:22:06;;;;;;;5.85;3.75;;;23.20;45.60;;;;;;7607192;23;80367;-75
2023/04/30 07:25:06;;;;;;;4.53;3.42;;;23.20;45.40;;;;;;7607112;23;80825;-70
2023/04/30 07:28:07;;;;;;;3.70;3.00;;;23.20;45.40;;;;;;7606490;23;80956;-74
2023/04/30 07:31:07;;;;;;;8.13;3.40;;;23.20;45.10;;;;;;7604204;22;81327;-70
2023/04/30 07:34:08;;;;;;;6.03;3.47;;;23.20;44.90;;;;;;7607262;23;80340;-68
2023/04/30 07:37:09;;;;;;;4.63;3.30;;;23.20;45.00;;;;;;7606909;22;81530;-62
2023/04/30 07:40:11;;;;;;;3.80;3.30;;;23.20;45.00;;;;;;7605654;22;80240;-61
2023/04/30 07:43:12;;;;;;;6.10;3.65;;;23.20;45.00;;;;;;7596403;23;81330;-63
2023/04/30 07:46:12;;;;;;;4.65;3.38;;;23.20;45.00;;;;;;7600237;22;81043;-62
2023/04/30 07:49:13;;;;;;;5.40;3.63;;;23.30;45.10;;;;;;7605008;23;80817;-62
2023/04/30 07:52:14;;;;;;;4.85;3.25;;;23.30;45.00;;;;;;7602619;23;80134;-62
2023/04/30 07:55:14;;;;;;;7.57;3.35;;;23.40;45.00;;;;;;7601540;22;80064;-69
2023/04/30 07:58:15;;;;;;;4.90;3.17;;;23.40;44.90;;;;;;7604540;23;80248;-68
2023/04/30 08:01:15;;;;;;;8.02;3.38;;;23.40;44.90;;;;;;7599318;23;81790;-65
2023/04/30 08:04:16;;;;;;;5.75;3.65;;;23.50;45.00;;;;;;7605183;23;81393;-70
2023/04/30 08:07:16;;;;;;;7.57;3.90;;;23.50;45.00;;;;;;7605077;23;80588;-72
2023/04/30 08:10:17;;;;;;;6.03;4.00;;;23.50;45.00;;;;;;7608823;22;80705;-67
2023/04/30 08:13:19;;;;;;;9.93;4.60;;;23.50;45.00;;;;;;7638359;22;83637;-70
2023/04/30 08:16:19;;;;;;;5.72;4.15;;;23.50;45.00;;;;;;7642742;22;80475;-71
2023/04/30 08:19:20;;;;;;;9.95;4.05;;;23.50;45.10;;;;;;7642394;22;80490;-70
2023/04/30 08:22:21;;;;;;;8.40;3.75;;;23.60;45.10;;;;;;7639090;22;80155;-69
2023/04/30 08:25:21;;;;;;;7.97;4.13;;;23.60;45.20;;;;;;7640097;22;80849;-68
2023/04/30 08:28:22;;;;;;;7.78;4.15;;;23.60;45.10;;;;;;7639879;22;80508;-72
2023/04/30 08:31:22;;;;;;;7.93;4.50;;;23.60;45.10;;;;;;7643290;22;80852;-66
2023/04/30 08:34:23;;;;;;;6.28;3.75;;;23.60;45.10;;;;;;7641186;22;81635;-67
2023/04/30 08:37:23;;;;;;;5.35;3.50;;;23.70;45.20;;;;;;7642995;22;80948;-66
2023/04/30 08:40:24;;;;;;;6.40;3.55;;;23.70;45.10;;;;;;7642851;22;80375;-67
2023/04/30 08:43:24;;;;;;;7.82;3.40;;;23.70;45.00;;;;;;7638833;22;80273;-67
2023/04/30 08:46:25;;;;;;;9.13;3.63;;;23.60;45.00;;;;;;7644035;22;80446;-66
2023/04/30 08:49:27;;;;;;;12.15;5.32;;;23.70;45.40;;;;;;7641678;22;80045;-66
2023/04/30 08:52:28;;;;;;;71.93;44.90;;;23.80;45.50;;;;;;7642937;22;79981;-62
2023/04/30 08:55:28;;;;;;;135.38;94.20;;;23.80;45.70;;;;;;7634929;22;82864;-63
2023/04/30 08:58:29;;;;;;;207.20;148.45;;;23.80;46.00;;;;;;7634955;22;83566;-61
2023/04/30 09:01:29;;;;;;;246.90;172.65;;;23.80;46.30;;;;;;7632763;22;85252;-62
2023/04/30 09:04:30;;;;;;;211.88;153.55;;;23.80;46.10;;;;;;7636009;22;85521;-63
2023/04/30 09:07:31;;;;;;;189.75;138.52;;;23.90;45.60;;;;;;7635221;22;85337;-63
2023/04/30 09:10:31;;;;;;;149.13;108.20;;;23.90;45.00;;;;;;7630918;22;85669;-64
2023/04/30 09:13:32;;;;;;;132.80;93.13;;;24.00;44.20;;;;;;7632737;22;86527;-63
2023/04/30 09:16:32;;;;;;;100.85;69.55;;;24.00;43.80;;;;;;7639511;22;85240;-63
2023/04/30 09:19:33;;;;;;;88.10;61.28;;;24.00;43.00;;;;;;7638825;22;83130;-62
2023/04/30 09:22:33;;;;;;;85.57;55.97;;;24.00;42.70;;;;;;7639948;22;83818;-63
2023/04/30 09:25:34;;;;;;;74.60;50.20;;;24.00;42.60;;;;;;7635628;22;82954;-63
2023/04/30 09:28:35;;;;;;;66.05;45.85;;;24.00;42.40;;;;;;7640326;22;83308;-61
2023/04/30 09:31:36;;;;;;;60.17;42.15;;;24.00;42.30;;;;;;7637543;22;83151;-60
2023/04/30 09:34:36;;;;;;;53.55;37.33;;;24.00;42.10;;;;;;7637756;22;83461;-60
2023/04/30 09:37:37;;;;;;;53.15;35.03;;;24.00;41.90;;;;;;7637892;22;83316;-62
2023/04/30 09:40:39;;;;;;;47.20;29.60;;;24.00;41.90;;;;;;7634358;22;83870;-60
2023/04/30 09:43:39;;;;;;;41.28;25.08;;;24.00;41.80;;;;;;7638882;22;83049;-61
2023/04/30 09:46:40;;;;;;;35.60;21.27;;;24.00;41.30;;;;;;7637655;22;82796;-61
2023/04/30 09:49:40;;;;;;;27.48;19.00;;;24.00;41.10;;;;;;7637404;22;83405;-61
2023/04/30 09:52:41;;;;;;;26.45;16.95;;;24.10;41.10;;;;;;7611803;22;84657;-61
2023/04/30 09:55:42;;;;;;;22.67;16.02;;;24.00;40.80;;;;;;7633619;22;83089;-61
2023/04/30 09:58:42;;;;;;;22.15;14.48;;;24.00;40.90;;;;;;7638779;22;83187;-60
2023/04/30 10:01:43;;;;;;;19.58;13.40;;;24.00;40.70;;;;;;7638640;22;83071;-60
2023/04/30 10:04:43;;;;;;;17.17;11.60;;;24.00;40.70;;;;;;7610783;22;85493;-69
2023/04/30 10:07:44;;;;;;;16.30;10.18;;;24.00;40.60;;;;;;7610820;22;84304;-68
2023/04/30 10:10:45;;;;;;;14.82;9.70;;;24.00;40.60;;;;;;7633954;22;83266;-68
2023/04/30 10:13:45;;;;;;;14.48;9.70;;;24.00;40.60;;;;;;7642114;22;82740;-68
2023/04/30 10:16:46;;;;;;;11.35;6.43;;;24.00;40.40;;;;;;7642659;22;80239;-68
2023/04/30 10:19:47;;;;;;;9.23;6.05;;;23.90;39.60;;;;;;7641746;22;80432;-70
2023/04/30 10:22:48;;;;;;;10.10;5.50;;;23.90;39.90;;;;;;7642831;22;81846;-70
2023/04/30 10:25:48;;;;;;;7.45;4.82;;;23.90;39.70;;;;;;7639190;22;80809;-63
2023/04/30 10:28:49;;;;;;;12.95;5.93;;;23.90;39.80;;;;;;7642487;22;80380;-63
2023/04/30 10:31:51;;;;;;;10.10;6.18;;;23.90;40.00;;;;;;7642258;22;80100;-62
2023/04/30 10:34:51;;;;;;;7.30;5.55;;;24.00;40.30;;;;;;7641587;22;81012;-64
2023/04/30 10:37:52;;;;;;;9.35;5.72;;;24.00;40.40;;;;;;7638766;22;81302;-66
2023/04/30 10:40:53;;;;;;;9.98;5.32;;;24.00;40.50;;;;;;7642844;22;80500;-61
2023/04/30 10:43:53;;;;;;;8.18;5.15;;;24.00;40.80;;;;;;7641775;22;80682;-65
2023/04/30 10:46:54;;;;;;;12.10;6.38;;;24.00;41.20;;;;;;7615453;22;83534;-62
2023/04/30 10:49:54;;;;;;;6.32;4.85;;;24.00;41.30;;;;;;7641958;22;80334;-60
2023/04/30 10:52:55;;;;;;;6.47;4.28;;;24.00;41.40;;;;;;7635888;22;80574;-61
2023/04/30 10:55:55;;;;;;;7.75;4.43;;;24.00;41.30;;;;;;7642577;22;81134;-61
2023/04/30 10:58:56;;;;;;;6.35;4.22;;;24.00;41.30;;;;;;7640251;22;80529;-63
2023/04/30 11:01:57;;;;;;;9.27;4.20;;;24.10;41.40;;;;;;7639659;22;81278;-67
2023/04/30 11:04:57;;;;;;;7.47;4.40;;;24.10;41.00;;;;;;7638118;22;80418;-64
2023/04/30 11:07:58;;;;;;;5.97;3.85;;;24.10;41.40;;;;;;7635156;22;80172;-64
2023/04/30 11:11:01;;;;;;;6.53;3.45;;;24.10;41.40;;;;;;7641089;22;80424;-64
2023/04/30 11:14:02;;;;;;;8.73;3.78;;;24.10;41.60;;;;;;7639450;22;80473;-65
2023/04/30 11:17:02;;;;;;;6.90;3.70;;;24.20;41.90;;;;;;7641491;22;80593;-64
2023/04/30 11:20:03;;;;;;;8.20;3.42;;;24.10;41.80;;;;;;7641475;22;80607;-63
2023/04/30 11:23:03;;;;;;;6.18;3.40;;;24.20;41.80;;;;;;7638340;22;80431;-64
2023/04/30 11:26:04;;;;;;;4.53;3.42;;;24.20;41.90;;;;;;7639464;22;80654;-66
2023/04/30 11:29:05;;;;;;;4.45;3.35;;;24.10;41.90;;;;;;7639634;22;81344;-66
2023/04/30 11:32:05;;;;;;;6.22;3.08;;;24.20;42.00;;;;;;7639712;22;80582;-64
2023/04/30 11:35:06;;;;;;;7.35;3.75;;;24.20;42.10;;;;;;7641862;22;80815;-62
2023/04/30 11:38:07;;;;;;;6.65;2.97;;;24.20;42.20;;;;;;7637636;22;80564;-61
2023/04/30 11:41:07;;;;;;;5.82;3.13;;;24.20;42.10;;;;;;7640514;22;81460;-61
2023/04/30 11:44:08;;;;;;;5.32;3.38;;;24.20;42.00;;;;;;7642833;22;80300;-61
2023/04/30 11:47:09;;;;;;;3.67;2.65;;;24.20;42.10;;;;;;7643811;22;80449;-62
2023/04/30 11:50:09;;;;;;;6.47;2.70;;;24.20;41.50;;;;;;7643168;22;80235;-61
2023/04/30 11:53:10;;;;;;;6.78;2.80;;;24.20;42.00;;;;;;7612073;22;83434;-61
2023/04/30 11:56:11;;;;;;;3.58;2.67;;;24.20;42.30;;;;;;7640365;22;80048;-63
2023/04/30 11:59:12;;;;;;;5.32;2.85;;;24.20;41.70;;;;;;7642333;22;80687;-63
2023/04/30 12:02:12;;;;;;;3.88;2.63;;;24.20;42.10;;;;;;7643015;22;80432;-63
2023/04/30 12:05:14;;;;;;;5.03;3.15;;;24.20;42.30;;;;;;7612034;22;85610;-66
2023/04/30 12:08:15;;;;;;;4.60;2.90;;;24.20;42.40;;;;;;7642227;22;80230;-61
2023/04/30 12:11:15;;;;;;;4.57;2.58;;;24.20;42.20;;;;;;7642384;22;80334;-64
2023/04/30 12:14:16;;;;;;;5.13;2.53;;;24.20;42.00;;;;;;7641485;22;80747;-61
2023/04/30 12:17:16;;;;;;;3.10;2.47;;;24.20;42.10;;;;;;7641303;22;80571;-60
2023/04/30 12:20:17;;;;;;;6.85;2.50;;;24.20;41.90;;;;;;7637331;22;81268;-62
2023/04/30 12:23:18;;;;;;;3.55;2.60;;;24.20;42.00;;;;;;7641936;22;81466;-66
2023/04/30 12:26:18;;;;;;;6.50;2.30;;;24.20;41.70;;;;;;7642718;22;81005;-63
2023/04/30 12:29:19;;;;;;;3.70;2.72;;;24.20;42.20;;;;;;7643360;22;81097;-62
2023/04/30 12:32:19;;;;;;;6.75;2.60;;;24.20;41.50;;;;;;7641855;22;80389;-71
2023/04/30 12:35:20;;;;;;;3.35;2.28;;;24.20;40.90;;;;;;7638392;22;80630;-75
2023/04/30 12:38:22;;;;;;;3.88;2.42;;;24.20;40.10;;;;;;7641986;22;80430;-73
2023/04/30 12:41:23;;;;;;;5.95;2.47;;;24.10;39.20;;;;;;7638604;22;80611;-73
2023/04/30 12:44:23;;;;;;;5.47;2.55;;;24.10;39.70;;;;;;7643397;22;80157;-74
2023/04/30 12:47:24;;;;;;;4.40;2.40;;;24.10;39.60;;;;;;7644011;22;81378;-70
2023/04/30 12:50:24;;;;;;;5.30;2.50;;;24.10;40.00;;;;;;7639639;22;79971;-62
2023/04/30 12:53:25;;;;;;;3.78;2.45;;;24.10;40.10;;;;;;7642777;22;80593;-67
2023/04/30 12:56:25;;;;;;;4.88;2.22;;;24.10;40.10;;;;;;7642825;22;80724;-64
2023/04/30 12:59:26;;;;;;;3.72;2.20;;;24.10;40.20;;;;;;7643054;22;80730;-64
2023/04/30 13:02:26;;;;;;;3.70;2.38;;;24.20;40.00;;;;;;7640326;22;80303;-63
2023/04/30 13:05:27;;;;;;;5.22;3.10;;;24.20;39.30;;;;;;7638326;22;81629;-65
2023/04/30 13:08:27;;;;;;;4.18;2.60;;;24.10;38.40;;;;;;7642768;22;81250;-73
2023/04/30 13:11:28;;;;;;;5.15;2.60;;;24.10;39.60;;;;;;7641487;22;80846;-69
2023/04/30 13:14:29;;;;;;;7.72;3.10;;;24.10;39.00;;;;;;7643371;22;81209;-68
2023/04/30 13:17:29;;;;;;;4.32;2.83;;;24.10;39.00;;;;;;7636759;22;80218;-66
2023/04/30 13:20:30;;;;;;;4.38;2.70;;;24.10;39.00;;;;;;7642660;22;80810;-66
2023/04/30 13:23:30;;;;;;;5.95;2.60;;;24.20;39.20;;;;;;7642067;22;80260;-69
2023/04/30 13:26:31;;;;;;;4.07;2.30;;;24.20;39.20;;;;;;7640049;22;80685;-64
2023/04/30 13:29:32;;;;;;;5.20;2.55;;;24.10;39.70;;;;;;7640571;22;80854;-66
2023/04/30 13:32:32;;;;;;;4.10;2.20;;;24.20;38.70;;;;;;7638214;22;81979;-65
2023/04/30 13:35:33;;;;;;;6.72;2.78;;;24.10;39.40;;;;;;7641804;22;80154;-66
2023/04/30 13:38:33;;;;;;;5.82;2.42;;;24.10;38.90;;;;;;7642097;22;80285;-64
2023/04/30 13:41:34;;;;;;;3.75;2.00;;;24.10;38.40;;;;;;7640887;22;81493;-65
2023/04/30 13:44:35;;;;;;;4.22;2.55;;;24.10;38.20;;;;;;7642557;22;80118;-67
2023/04/30 13:47:36;;;;;;;3.53;2.05;;;24.10;37.80;;;;;;7637884;22;81057;-63
2023/04/30 13:50:36;;;;;;;4.35;2.30;;;24.00;37.90;;;;;;7641867;22;80207;-64
2023/04/30 13:53:37;;;;;;;4.00;2.15;;;24.00;37.60;;;;;;7644125;22;80315;-62
2023/04/30 13:56:37;;;;;;;5.53;2.60;;;24.00;37.60;;;;;;7643629;22;80890;-61
2023/04/30 13:59:38;;;;;;;4.43;2.38;;;24.00;38.30;;;;;;7642685;22;80524;-63
2023/04/30 14:02:38;;;;;;;5.32;2.45;;;24.00;38.10;;;;;;7639580;22;80451;-64
2023/04/30 14:05:39;;;;;;;5.72;2.45;;;24.00;38.10;;;;;;7643334;22;80969;-65
2023/04/30 14:08:39;;;;;;;3.92;2.40;;;24.00;38.30;;;;;;7643315;22;80392;-65
2023/04/30 14:11:40;;;;;;;4.93;2.20;;;24.00;38.50;;;;;;7644189;22;80877;-64
2023/04/30 14:14:41;;;;;;;5.68;2.22;;;24.00;38.30;;;;;;7643726;22;80443;-65
2023/04/30 14:17:42;;;;;;;3.17;2.17;;;24.00;38.20;;;;;;7639716;22;80384;-66
2023/04/30 14:20:42;;;;;;;5.32;2.50;;;24.00;38.30;;;;;;7642487;22;80602;-71
2023/04/30 14:23:45;;;;;;;5.72;2.80;;;24.00;38.80;;;;;;7644282;22;80166;-64
2023/04/30 14:26:45;;;;;;;6.68;2.00;;;24.00;38.40;;;;;;7643081;22;80809;-65
2023/04/30 14:29:46;;;;;;;3.53;1.98;;;24.00;38.40;;;;;;7643261;22;80492;-65
2023/04/30 14:32:46;;;;;;;6.60;2.53;;;23.90;38.30;;;;;;7638506;22;81384;-62
2023/04/30 14:35:47;;;;;;;3.97;2.30;;;23.90;38.50;;;;;;7640578;22;80730;-61
2023/04/30 14:38:47;;;;;;;3.42;1.80;;;23.90;38.30;;;;;;7640784;22;86222;-62
2023/04/30 14:41:48;;;;;;;6.90;2.63;;;23.90;38.30;;;;;;7641650;22;80790;-63
2023/04/30 14:44:48;;;;;;;6.57;2.30;;;23.90;38.30;;;;;;7636629;22;80593;-64
2023/04/30 14:47:49;;;;;;;4.90;2.60;;;23.80;38.20;;;;;;7641089;22;80534;-64
2023/04/30 14:50:51;;;;;;;4.40;2.20;;;23.80;38.20;;;;;;7639314;22;80341;-69
2023/04/30 14:53:51;;;;;;;4.90;2.30;;;23.80;38.30;;;;;;7638763;22;80764;-71
2023/04/30 14:56:51;;;;;;;5.22;2.80;;;23.80;38.50;;;;;;7642410;22;80583;-68
2023/04/30 14:59:53;;;;;;;4.38;2.30;;;23.90;38.80;;;;;;7641095;22;80741;-67
2023/04/30 15:02:54;;;;;;;3.83;2.38;;;23.80;38.90;;;;;;7639795;22;80354;-72
2023/04/30 15:05:54;;;;;;;5.22;2.35;;;23.80;39.20;;;;;;7639758;22;80236;-70
2023/04/30 15:08:55;;;;;;;2.95;1.80;;;23.80;40.10;;;;;;7639279;22;80403;-69
2023/04/30 15:11:56;;;;;;;3.20;1.85;;;23.80;39.70;;;;;;7640357;22;80906;-67
2023/04/30 15:14:57;;;;;;;7.43;2.65;;;23.80;39.80;;;;;;7639652;22;80265;-70
2023/04/30 15:17:57;;;;;;;4.47;2.33;;;23.80;39.90;;;;;;7638111;22;80761;-66
2023/04/30 15:20:58;;;;;;;3.58;2.03;;;23.80;39.90;;;;;;7638994;22;80387;-64
2023/04/30 15:23:58;;;;;;;4.70;2.47;;;23.80;40.00;;;;;;7638043;22;80494;-63
2023/04/30 15:26:59;;;;;;;3.70;2.08;;;23.80;40.00;;;;;;7632899;22;80984;-60
2023/04/30 15:29:59;;;;;;;3.92;2.00;;;23.80;40.20;;;;;;7639309;22;81510;-60
2023/04/30 15:33:00;;;;;;;4.00;2.47;;;23.80;40.40;;;;;;7643116;22;80419;-61
2023/04/30 15:36:00;;;;;;;3.20;2.10;;;23.90;41.30;;;;;;7642676;22;80557;-69
2023/04/30 15:39:01;;;;;;;4.55;2.08;;;23.80;40.50;;;;;;7641077;22;81246;-68
2023/04/30 15:42:02;;;;;;;3.95;2.15;;;23.90;40.50;;;;;;7638230;22;82054;-62
2023/04/30 15:45:02;;;;;;;3.40;1.90;;;23.90;40.70;;;;;;7640861;22;80799;-65